createdAt,value
2022-08-19T00:01:29.126Z,8.63
2022-08-19T00:04:00.206Z,4.90
2022-08-19T00:06:29.530Z,4.88
2022-08-19T00:08:57.990Z,4.10
2022-08-19T00:11:28.454Z,5.60
2022-08-19T00:13:57.621Z,5.97
2022-08-19T00:16:27.011Z,5.35
2022-08-19T00:18:56.265Z,8.00
2022-08-19T00:21:27.603Z,5.88
2022-08-19T00:23:55.918Z,4.30
2022-08-19T00:26:23.925Z,6.27
2022-08-19T00:28:53.880Z,5.93
2022-08-19T00:31:22.219Z,6.22
2022-08-19T00:33:51.372Z,5.45
2022-08-19T00:36:19.672Z,6.93
2022-08-19T00:38:49.489Z,6.85
2022-08-19T00:41:22.117Z,5.32
2022-08-19T00:44:00.442Z,5.03
2022-08-19T00:46:28.679Z,5.13
2022-08-19T00:48:58.163Z,4.85
2022-08-19T00:51:27.465Z,4.93
2022-08-19T00:53:59.524Z,7.70
2022-08-19T00:56:28.501Z,6.35
2022-08-19T00:58:58.582Z,5.80
2022-08-19T01:01:26.913Z,4.88
2022-08-19T01:03:57.599Z,4.80
2022-08-19T01:06:27.189Z,5.38
2022-08-19T01:08:57.528Z,7.80
2022-08-19T01:11:25.514Z,6.43
2022-08-19T01:13:55.273Z,7.38
2022-08-19T01:16:26.935Z,5.30
2022-08-19T01:18:55.228Z,6.07
2022-08-19T01:21:29.601Z,7.33
2022-08-19T01:23:59.418Z,8.05
2022-08-19T01:26:28.087Z,5.80
2022-08-19T01:29:00.810Z,5.00
2022-08-19T01:31:32.718Z,4.93
2022-08-19T01:34:02.441Z,7.15
2022-08-19T01:36:33.246Z,6.68
2022-08-19T01:39:04.833Z,6.75
2022-08-19T01:41:32.995Z,7.90
2022-08-19T01:44:13.682Z,6.85
2022-08-19T01:46:49.205Z,6.00
2022-08-19T01:49:19.521Z,6.70
2022-08-19T01:51:47.770Z,4.63
2022-08-19T01:54:23.133Z,6.30
2022-08-19T01:57:00.648Z,7.32
2022-08-19T01:59:28.774Z,5.35
2022-08-19T02:01:56.732Z,11.00
2022-08-19T02:04:26.408Z,6.90
2022-08-19T02:06:54.357Z,7.53
2022-08-19T02:09:23.726Z,6.80
2022-08-19T02:11:51.741Z,7.40
2022-08-19T02:14:19.660Z,12.13
2022-08-19T02:16:47.530Z,8.10
2022-08-19T02:19:15.602Z,9.33
2022-08-19T02:21:44.548Z,7.63
2022-08-19T02:24:13.222Z,8.98
2022-08-19T02:26:42.577Z,10.00
2022-08-19T02:29:10.540Z,8.67
2022-08-19T02:31:38.612Z,9.40
2022-08-19T02:34:06.528Z,10.15
2022-08-19T02:36:34.558Z,9.93
2022-08-19T02:39:01.537Z,10.30
2022-08-19T02:41:32.079Z,8.10
2022-08-19T02:44:30.398Z,11.20
2022-08-19T02:46:51.578Z,10.05
2022-08-19T02:49:20.989Z,13.68
2022-08-19T02:51:49.132Z,10.63
2022-08-19T02:54:17.197Z,10.20
2022-08-19T02:56:46.916Z,10.43
2022-08-19T02:59:16.226Z,11.43
2022-08-19T03:01:44.913Z,9.10
2022-08-19T03:04:17.881Z,14.00
2022-08-19T03:06:48.458Z,14.25
2022-08-19T03:09:17.277Z,9.00
2022-08-19T03:11:45.660Z,9.80
2022-08-19T03:14:14.089Z,11.45
2022-08-19T03:16:45.726Z,11.52
2022-08-19T03:19:14.689Z,11.98
2022-08-19T03:21:45.514Z,14.38
2022-08-19T03:24:13.961Z,9.37
2022-08-19T03:26:42.653Z,11.82
2022-08-19T03:29:11.368Z,13.35
2022-08-19T03:31:52.869Z,15.23
2022-08-19T03:34:27.154Z,18.67
2022-08-19T03:36:55.924Z,15.52
2022-08-19T03:39:25.167Z,17.35
2022-08-19T03:42:33.015Z,17.67
2022-08-19T03:44:43.361Z,15.20
2022-08-19T03:47:16.621Z,19.15
2022-08-19T03:49:45.069Z,16.05
2022-08-19T03:52:13.309Z,16.40
2022-08-19T03:54:41.368Z,20.65
2022-08-19T03:57:09.941Z,21.58
2022-08-19T03:59:39.131Z,22.88
2022-08-19T04:02:11.496Z,21.85
2022-08-19T04:04:44.080Z,18.50
2022-08-19T04:07:14.541Z,19.27
2022-08-19T04:09:42.547Z,21.10
2022-08-19T04:12:10.848Z,19.02
2022-08-19T04:14:38.868Z,19.92
2022-08-19T04:17:07.024Z,25.27
2022-08-19T04:19:35.969Z,22.20
2022-08-19T04:22:06.438Z,21.23
2022-08-19T04:24:37.394Z,23.92
2022-08-19T04:27:07.057Z,23.42
2022-08-19T04:29:35.470Z,24.92
2022-08-19T04:32:08.993Z,26.80
2022-08-19T04:35:01.294Z,24.73
2022-08-19T04:37:27.486Z,25.50
2022-08-19T04:40:17.361Z,26.42
2022-08-19T04:42:45.400Z,29.63
2022-08-19T04:45:16.017Z,29.38
2022-08-19T04:47:51.435Z,23.20
2022-08-19T04:50:26.865Z,23.33
2022-08-19T04:52:57.720Z,29.37
2022-08-19T04:55:27.397Z,31.35
2022-08-19T04:57:55.971Z,30.17
2022-08-19T05:00:24.033Z,28.67
2022-08-19T05:02:52.242Z,31.17
2022-08-19T05:05:20.786Z,32.40
2022-08-19T05:07:48.886Z,35.03
2022-08-19T05:10:18.197Z,39.15
2022-08-19T05:12:46.110Z,35.08
2022-08-19T05:15:14.294Z,42.00
2022-08-19T05:18:03.177Z,45.15
2022-08-19T05:20:48.897Z,42.00
2022-08-19T05:23:22.068Z,45.92
2022-08-19T05:25:52.524Z,45.38
2022-08-19T05:28:21.024Z,52.30
2022-08-19T05:30:51.402Z,49.38
2022-08-19T05:33:19.526Z,55.63
2022-08-19T05:35:49.236Z,48.35
2022-08-19T05:38:17.845Z,54.63
2022-08-19T05:40:47.616Z,50.42
2022-08-19T05:43:17.489Z,48.42
2022-08-19T05:45:46.424Z,56.77
2022-08-19T05:48:15.653Z,53.25
2022-08-19T05:50:46.274Z,58.53
2022-08-19T05:53:15.539Z,50.23
2022-08-19T05:55:43.728Z,53.30
2022-08-19T05:58:12.284Z,53.58
2022-08-19T06:00:42.072Z,56.10
2022-08-19T06:03:12.644Z,51.25
2022-08-19T06:05:46.824Z,59.10
2022-08-19T06:08:20.572Z,57.15
2022-08-19T06:11:14.677Z,52.65
2022-08-19T06:13:42.666Z,54.67
2022-08-19T06:16:12.062Z,50.72
2022-08-19T06:18:39.988Z,48.77
2022-08-19T06:21:07.853Z,48.40
2022-08-19T06:23:36.442Z,47.88
2022-08-19T06:26:05.128Z,47.30
2022-08-19T06:28:33.978Z,44.80
2022-08-19T06:31:08.272Z,47.58
2022-08-19T06:33:38.275Z,49.75
2022-08-19T06:36:07.073Z,51.63
2022-08-19T06:38:35.348Z,44.75
2022-08-19T06:41:07.800Z,47.20
2022-08-19T06:43:37.092Z,48.17
2022-08-19T06:46:14.683Z,45.60
2022-08-19T06:48:45.297Z,46.17
2022-08-19T06:51:16.529Z,50.90
2022-08-19T06:53:48.111Z,48.38
2022-08-19T06:56:17.649Z,45.55
2022-08-19T06:58:46.551Z,54.90
2022-08-19T07:01:15.046Z,53.67
2022-08-19T07:03:44.382Z,51.85
2022-08-19T07:06:32.500Z,45.53
2022-08-19T07:09:04.992Z,41.78
2022-08-19T07:11:34.184Z,47.55
2022-08-19T07:14:02.378Z,40.65
2022-08-19T07:16:31.720Z,42.45
2022-08-19T07:19:11.826Z,46.38
2022-08-19T07:21:44.444Z,45.63
2022-08-19T07:24:13.223Z,40.30
2022-08-19T07:26:44.320Z,42.38
2022-08-19T07:29:14.457Z,43.70
2022-08-19T07:31:43.579Z,45.35
2022-08-19T07:34:15.941Z,41.65
2022-08-19T07:36:45.992Z,43.03
2022-08-19T07:39:17.434Z,36.22
2022-08-19T07:41:46.143Z,39.45
2022-08-19T07:44:15.601Z,33.67
2022-08-19T07:46:48.131Z,32.90
2022-08-19T07:49:20.597Z,38.95
2022-08-19T07:51:50.502Z,30.40
2022-08-19T07:54:19.229Z,36.90
2022-08-19T07:56:47.519Z,27.08
2022-08-19T07:59:16.328Z,31.30
2022-08-19T08:01:44.329Z,30.37
2022-08-19T08:04:41.791Z,32.17
2022-08-19T08:07:31.610Z,25.90
2022-08-19T08:09:59.903Z,29.73
2022-08-19T08:12:35.592Z,29.38
2022-08-19T08:15:08.394Z,27.48
2022-08-19T08:17:48.812Z,25.08
2022-08-19T08:20:18.276Z,24.58
2022-08-19T08:23:06.691Z,23.10
2022-08-19T08:25:36.209Z,29.48
2022-08-19T08:28:05.334Z,28.98
2022-08-19T08:30:36.712Z,28.55
2022-08-19T08:33:06.197Z,20.20
2022-08-19T08:35:34.394Z,27.70
2022-08-19T08:38:04.656Z,27.70
2022-08-19T08:40:39.381Z,25.40
2022-08-19T08:43:11.651Z,25.70
2022-08-19T08:45:53.705Z,28.38
2022-08-19T08:48:27.627Z,26.77
2022-08-19T08:50:58.451Z,23.13
2022-08-19T08:53:31.766Z,25.25
2022-08-19T08:56:05.669Z,25.92
2022-08-19T08:58:42.948Z,22.10
2022-08-19T09:01:13.048Z,20.65
2022-08-19T09:03:43.437Z,24.27
2022-08-19T09:06:18.031Z,23.40
2022-08-19T09:08:56.955Z,23.00
2022-08-19T09:11:42.402Z,22.17
2022-08-19T09:14:47.311Z,24.17
2022-08-19T09:17:11.478Z,18.10
2022-08-19T09:19:54.301Z,21.48
2022-08-19T09:22:25.843Z,25.43
2022-08-19T09:24:57.476Z,107.65
2022-08-19T09:27:41.755Z,31.33
2022-08-19T09:30:15.052Z,33.08
2022-08-19T09:32:44.243Z,36.57
2022-08-19T09:35:13.596Z,35.43
2022-08-19T09:37:42.135Z,30.52
2022-08-19T09:40:14.356Z,28.33
2022-08-19T09:42:49.744Z,31.17
2022-08-19T09:45:21.880Z,26.42
2022-08-19T09:47:50.396Z,32.80
2022-08-19T09:50:19.054Z,22.40
2022-08-19T09:52:55.242Z,22.98
2022-08-19T09:55:31.942Z,22.43
2022-08-19T09:58:02.064Z,23.60
2022-08-19T10:00:31.285Z,24.55
2022-08-19T10:02:59.265Z,19.50
2022-08-19T10:05:44.571Z,23.70
2022-08-19T10:08:17.546Z,23.83
2022-08-19T10:10:48.070Z,21.83
2022-08-19T10:13:18.210Z,25.63
2022-08-19T10:15:47.317Z,20.73
2022-08-19T10:18:18.635Z,23.00
2022-08-19T10:20:51.752Z,19.73
2022-08-19T10:23:22.077Z,19.10
2022-08-19T10:25:52.404Z,18.30
2022-08-19T10:28:20.325Z,19.65
2022-08-19T10:30:49.341Z,21.52
2022-08-19T10:33:39.078Z,23.63
2022-08-19T10:36:08.280Z,16.50
2022-08-19T10:38:36.478Z,14.50
2022-08-19T10:41:14.606Z,22.60
2022-08-19T10:43:43.360Z,16.35
2022-08-19T10:46:16.683Z,14.40
2022-08-19T10:48:45.952Z,16.35
2022-08-19T10:51:31.937Z,9.98
2022-08-19T10:54:00.506Z,9.77
2022-08-19T10:56:47.870Z,12.45
2022-08-19T10:59:16.488Z,11.73
2022-08-19T11:01:46.572Z,10.30
2022-08-19T11:04:18.309Z,8.95
2022-08-19T11:06:48.307Z,8.97
2022-08-19T11:09:17.369Z,8.30
2022-08-19T11:11:48.445Z,9.65
2022-08-19T11:14:20.815Z,6.10
2022-08-19T11:16:50.057Z,7.15
2022-08-19T11:19:19.993Z,11.63
2022-08-19T11:21:50.441Z,8.43
2022-08-19T11:24:21.190Z,8.50
2022-08-19T11:26:54.180Z,8.43
2022-08-19T11:29:26.680Z,12.13
2022-08-19T11:31:55.759Z,8.93
2022-08-19T11:34:26.210Z,7.85
2022-08-19T11:36:59.038Z,10.02
2022-08-19T11:39:29.104Z,7.65
2022-08-19T11:42:00.778Z,12.00
2022-08-19T11:44:31.356Z,6.43
2022-08-19T11:47:09.214Z,5.20
2022-08-19T11:49:37.443Z,4.93
2022-08-19T11:52:05.588Z,4.97
2022-08-19T11:54:33.653Z,4.35
2022-08-19T11:57:04.482Z,6.67
2022-08-19T11:59:32.649Z,5.15
2022-08-19T12:02:00.631Z,6.10
2022-08-19T12:04:28.556Z,5.40
2022-08-19T12:06:56.528Z,5.53
2022-08-19T12:09:24.513Z,6.40
2022-08-19T12:11:52.856Z,7.43
2022-08-19T12:14:22.117Z,4.05
2022-08-19T12:16:51.651Z,3.25
2022-08-19T12:19:22.308Z,3.40
2022-08-19T12:21:51.586Z,4.53
2022-08-19T12:24:23.988Z,2.83
2022-08-19T12:26:53.488Z,2.60
2022-08-19T12:29:29.549Z,3.03
2022-08-19T12:32:03.985Z,4.72
2022-08-19T12:34:33.321Z,2.60
2022-08-19T12:37:03.505Z,2.80
2022-08-19T12:39:32.152Z,3.13
2022-08-19T12:42:00.616Z,1.40
2022-08-19T12:44:32.088Z,2.00
2022-08-19T12:47:01.859Z,5.10
2022-08-19T12:49:52.499Z,4.30
2022-08-19T12:52:23.532Z,1.67
2022-08-19T12:54:54.306Z,3.53
2022-08-19T12:57:32.244Z,2.13
2022-08-19T13:00:06.434Z,1.80
2022-08-19T13:02:39.067Z,2.78
2022-08-19T13:05:10.767Z,2.10
2022-08-19T13:07:39.445Z,7.20
2022-08-19T13:10:09.056Z,5.53
2022-08-19T13:12:37.645Z,3.30
2022-08-19T13:15:10.855Z,2.10
2022-08-19T13:17:40.122Z,2.67
2022-08-19T13:20:09.631Z,4.20
2022-08-19T13:22:37.927Z,3.60
2022-08-19T13:25:06.553Z,1.90
2022-08-19T13:27:34.537Z,4.32
2022-08-19T13:30:20.257Z,2.17
2022-08-19T13:33:07.086Z,2.80
2022-08-19T13:35:35.174Z,2.13
2022-08-19T13:38:11.704Z,2.17
2022-08-19T13:40:41.483Z,3.08
2022-08-19T13:43:12.454Z,4.13
2022-08-19T13:45:51.532Z,1.77
2022-08-19T13:48:20.843Z,2.70
2022-08-19T13:50:49.314Z,3.47
2022-08-19T13:53:17.579Z,2.17
2022-08-19T13:55:46.415Z,3.47
2022-08-19T13:58:14.742Z,2.27
2022-08-19T14:00:44.810Z,4.18
2022-08-19T14:03:13.000Z,1.60
2022-08-19T14:05:42.438Z,1.70
2022-08-19T14:08:10.765Z,1.95
2022-08-19T14:10:38.685Z,3.40
2022-08-19T14:13:06.720Z,3.05
2022-08-19T14:15:34.708Z,4.90
2022-08-19T14:18:02.658Z,2.60
2022-08-19T14:20:30.955Z,2.22
2022-08-19T14:23:00.283Z,3.60
2022-08-19T14:25:30.513Z,3.70
2022-08-19T14:27:59.357Z,2.70
2022-08-19T14:30:29.234Z,3.80
2022-08-19T14:32:58.089Z,3.42
2022-08-19T14:35:26.267Z,2.70
2022-08-19T14:37:56.410Z,3.45
2022-08-19T14:40:28.803Z,5.80
2022-08-19T14:43:00.026Z,3.80
2022-08-19T14:45:29.024Z,5.03
2022-08-19T14:47:57.078Z,5.18
2022-08-19T14:50:25.162Z,5.53
2022-08-19T14:53:00.695Z,5.85
2022-08-19T14:55:30.106Z,5.80
2022-08-19T14:57:58.565Z,7.70
2022-08-19T15:00:28.377Z,4.45
2022-08-19T15:02:56.525Z,3.22
2022-08-19T15:05:24.558Z,2.80
2022-08-19T15:07:52.546Z,3.67
2022-08-19T15:10:20.506Z,4.20
2022-08-19T15:12:51.873Z,4.88
2022-08-19T15:15:20.815Z,3.60
2022-08-19T15:17:48.756Z,2.85
2022-08-19T15:20:19.045Z,3.50
2022-08-19T15:22:47.180Z,2.70
2022-08-19T15:25:17.180Z,2.08
2022-08-19T15:27:45.260Z,2.20
2022-08-19T15:30:20.961Z,3.08
2022-08-19T15:32:49.308Z,3.20
2022-08-19T15:35:19.359Z,4.30
2022-08-19T15:37:47.394Z,2.10
2022-08-19T15:40:15.480Z,2.80
2022-08-19T15:42:43.606Z,3.58
2022-08-19T15:45:14.864Z,3.10
2022-08-19T15:47:43.154Z,2.60
2022-08-19T15:50:13.472Z,2.78
2022-08-19T15:52:49.706Z,3.85
2022-08-19T15:55:33.601Z,2.78
2022-08-19T15:58:27.928Z,2.10
2022-08-19T16:01:16.220Z,2.00
2022-08-19T16:04:03.239Z,3.70
2022-08-19T16:06:32.772Z,3.30
2022-08-19T16:09:02.989Z,3.90
2022-08-19T16:11:39.170Z,3.50
2022-08-19T16:14:09.511Z,3.50
2022-08-19T16:16:39.538Z,3.38
2022-08-19T16:19:10.617Z,2.47
2022-08-19T16:21:41.496Z,4.38
2022-08-19T16:24:12.061Z,2.50
2022-08-19T16:26:41.010Z,1.52
2022-08-19T16:29:12.090Z,3.20
2022-08-19T16:31:46.011Z,1.50
2022-08-19T16:34:14.922Z,1.70
2022-08-19T16:36:43.474Z,1.83
2022-08-19T16:39:12.628Z,1.20
2022-08-19T16:41:41.237Z,1.27
2022-08-19T16:44:12.504Z,2.22
2022-08-19T16:46:42.568Z,2.22
2022-08-19T16:49:11.496Z,2.00
2022-08-19T16:51:40.245Z,1.48
2022-08-19T16:54:09.710Z,2.40
2022-08-19T16:56:37.703Z,1.50
2022-08-19T16:59:06.579Z,1.73
2022-08-19T17:01:34.524Z,1.27
2022-08-19T17:04:04.170Z,2.10
2022-08-19T17:06:32.133Z,1.60
2022-08-19T17:09:02.729Z,0.90
2022-08-19T17:11:32.949Z,1.00
2022-08-19T17:14:01.455Z,0.88
2022-08-19T17:16:32.229Z,1.00
2022-08-19T17:19:04.911Z,0.90
2022-08-19T17:21:34.955Z,0.60
2022-08-19T17:24:04.829Z,0.80
2022-08-19T17:26:35.120Z,1.20
2022-08-19T17:29:03.242Z,0.80
2022-08-19T17:31:33.102Z,0.90
2022-08-19T17:34:01.609Z,2.90
2022-08-19T17:36:34.063Z,1.15
2022-08-19T17:39:03.967Z,1.80
2022-08-19T17:41:34.067Z,2.00
2022-08-19T17:44:02.465Z,1.20
2022-08-19T17:46:31.123Z,1.63
2022-08-19T17:49:00.102Z,1.10
2022-08-19T17:51:42.493Z,1.00
2022-08-19T17:54:11.993Z,1.20
2022-08-19T17:56:40.488Z,1.60
2022-08-19T17:59:11.798Z,1.33
2022-08-19T18:01:53.740Z,1.80
2022-08-19T18:04:23.169Z,1.57
2022-08-19T18:06:54.769Z,1.58
2022-08-19T18:09:28.609Z,2.47
2022-08-19T18:12:10.647Z,1.83
2022-08-19T18:14:39.466Z,1.35
2022-08-19T18:17:10.194Z,1.70
2022-08-19T18:19:40.993Z,2.20
2022-08-19T18:22:13.339Z,2.15
2022-08-19T18:24:42.991Z,1.73
2022-08-19T18:27:14.327Z,2.67
2022-08-19T18:29:43.391Z,2.00
2022-08-19T18:32:13.640Z,2.20
2022-08-19T18:34:42.389Z,3.63
2022-08-19T18:37:12.092Z,3.20
2022-08-19T18:39:57.959Z,2.80
2022-08-19T18:42:43.341Z,3.10
2022-08-19T18:45:35.132Z,3.80
2022-08-19T18:48:26.861Z,4.10
2022-08-19T18:50:57.176Z,4.07
2022-08-19T18:53:28.024Z,3.50
2022-08-19T18:55:55.987Z,4.10
2022-08-19T18:58:26.737Z,4.00
2022-08-19T19:00:57.190Z,5.13
2022-08-19T19:03:26.296Z,4.78
2022-08-19T19:05:55.580Z,3.00
2022-08-19T19:08:26.999Z,4.68
2022-08-19T19:10:58.911Z,5.22
2022-08-19T19:13:28.550Z,3.67
2022-08-19T19:15:56.914Z,5.47
2022-08-19T19:18:25.103Z,3.90
2022-08-19T19:20:53.127Z,3.50
2022-08-19T19:23:21.708Z,5.00
2022-08-19T19:25:51.328Z,5.97
2022-08-19T19:28:25.375Z,4.75
2022-08-19T19:30:57.603Z,4.95
2022-08-19T19:33:25.809Z,4.40
2022-08-19T19:35:54.018Z,3.75
2022-08-19T19:38:21.995Z,3.72
2022-08-19T19:40:50.017Z,4.22
2022-08-19T19:43:19.072Z,4.80
2022-08-19T19:45:49.728Z,4.88
2022-08-19T19:48:17.725Z,3.47
2022-08-19T19:50:53.941Z,6.05
2022-08-19T19:53:26.084Z,3.00
2022-08-19T19:55:57.608Z,3.97
2022-08-19T19:58:28.829Z,4.07
2022-08-19T20:00:59.601Z,6.75
2022-08-19T20:03:27.876Z,3.70
2022-08-19T20:05:59.491Z,3.60
2022-08-19T20:08:46.292Z,6.22
2022-08-19T20:11:25.749Z,4.17
2022-08-19T20:13:53.699Z,3.65
2022-08-19T20:16:25.465Z,4.32
2022-08-19T20:18:57.051Z,4.18
2022-08-19T20:21:27.515Z,3.80
2022-08-19T20:24:08.902Z,6.30
2022-08-19T20:26:37.608Z,4.15
2022-08-19T20:29:13.444Z,4.53
2022-08-19T20:31:59.046Z,3.78
2022-08-19T20:34:28.183Z,4.57
2022-08-19T20:36:56.127Z,4.10
2022-08-19T20:39:24.058Z,4.10
2022-08-19T20:41:51.917Z,3.72
2022-08-19T20:44:19.869Z,5.57
2022-08-19T20:46:54.342Z,5.47
2022-08-19T20:49:27.260Z,3.67
2022-08-19T20:51:55.757Z,3.58
2022-08-19T20:54:24.157Z,4.15
2022-08-19T20:56:52.976Z,4.68
2022-08-19T20:59:21.333Z,4.45
2022-08-19T21:01:51.678Z,3.95
2022-08-19T21:04:19.671Z,4.53
2022-08-19T21:06:49.216Z,5.10
2022-08-19T21:09:17.224Z,7.57
2022-08-19T21:11:45.552Z,4.88
2022-08-19T21:14:13.780Z,6.00
2022-08-19T21:16:41.844Z,5.90
2022-08-19T21:19:10.013Z,4.70
2022-08-19T21:21:37.953Z,5.13
2022-08-19T21:24:07.501Z,3.20
2022-08-19T21:26:35.438Z,10.18
2022-08-19T21:29:03.348Z,6.73
2022-08-19T21:31:31.316Z,5.40
2022-08-19T21:33:59.597Z,5.47
2022-08-19T21:36:27.574Z,4.13
2022-08-19T21:38:55.500Z,4.88
2022-08-19T21:41:24.775Z,6.13
2022-08-19T21:43:52.747Z,4.03
2022-08-19T21:46:20.851Z,3.40
2022-08-19T21:48:48.789Z,6.22
2022-08-19T21:51:16.940Z,6.82
2022-08-19T21:53:44.906Z,4.60
2022-08-19T21:56:13.442Z,5.80
2022-08-19T21:58:42.679Z,5.50
2022-08-19T22:01:10.616Z,5.45
2022-08-19T22:03:40.114Z,6.20
2022-08-19T22:06:08.395Z,6.32
2022-08-19T22:08:36.600Z,5.28
2022-08-19T22:11:05.365Z,5.80
2022-08-19T22:13:39.955Z,5.75
2022-08-19T22:16:10.753Z,3.78
2022-08-19T22:18:39.041Z,10.40
2022-08-19T22:21:11.414Z,4.95
2022-08-19T22:23:40.458Z,4.22
2022-08-19T22:26:08.624Z,7.10
2022-08-19T22:28:36.591Z,4.80
2022-08-19T22:31:05.753Z,5.05
2022-08-19T22:33:37.331Z,6.50
2022-08-19T22:36:07.438Z,5.00
2022-08-19T22:38:35.761Z,8.75
2022-08-19T22:41:03.748Z,6.13
2022-08-19T22:43:32.457Z,8.07
2022-08-19T22:46:02.189Z,3.95
2022-08-19T22:48:32.587Z,6.38
2022-08-19T22:51:19.768Z,4.18
2022-08-19T22:53:48.504Z,4.70
2022-08-19T22:56:19.039Z,3.38
2022-08-19T22:58:50.578Z,7.90
2022-08-19T23:01:27.551Z,5.05
2022-08-19T23:03:58.954Z,5.97
2022-08-19T23:06:33.837Z,6.60
2022-08-19T23:09:04.463Z,4.20
2022-08-19T23:11:35.630Z,3.90
2022-08-19T23:14:07.083Z,5.28
2022-08-19T23:16:36.841Z,3.83
2022-08-19T23:19:05.207Z,6.80
2022-08-19T23:21:36.210Z,6.40
2022-08-19T23:24:04.705Z,4.07
2022-08-19T23:26:35.766Z,4.10
2022-08-19T23:29:22.656Z,5.40
2022-08-19T23:31:50.634Z,5.05
2022-08-19T23:34:18.647Z,5.32
2022-08-19T23:36:48.328Z,5.88
2022-08-19T23:39:16.502Z,6.28
2022-08-19T23:41:44.401Z,5.32
2022-08-19T23:44:14.626Z,5.65
2022-08-19T23:46:55.267Z,5.72
2022-08-19T23:49:25.069Z,6.55
2022-08-19T23:51:55.324Z,5.40
2022-08-19T23:54:34.355Z,4.57
2022-08-19T23:57:13.493Z,4.85
2022-08-19T23:59:45.077Z,4.18
